sensor_id;sensor_type;location;lat;lon;timestamp;P1;durP1;ratioP1;P2;durP2;ratioP2
62457;SDS011;48509;52.122;5.250;2023-09-19T00:01:06;9.21;;;2.4;;
62457;SDS011;48509;52.122;5.250;2023-09-19T00:02:42;9.1;;;2.6;;
62457;SDS011;48509;52.122;5.250;2023-09-19T00:05:55;9.71;;;2.31;;
62457;SDS011;48509;52.122;5.250;2023-09-19T00:07:33;5.6;;;2.0;;
62457;SDS011;48509;52.122;5.250;2023-09-19T00:09:09;10.0;;;2.5;;
62457;SDS011;48509;52.122;5.250;2023-09-19T00:10:45;8.5;;;2.31;;
62457;SDS011;48509;52.122;5.250;2023-09-19T00:13:57;7.6;;;2.6;;
62457;SDS011;48509;52.122;5.250;2023-09-19T00:15:36;11.1;;;2.31;;
62457;SDS011;48509;52.122;5.250;2023-09-19T00:17:14;8.9;;;2.7;;
62457;SDS011;48509;52.122;5.250;2023-09-19T00:20:27;11.2;;;2.7;;
62457;SDS011;48509;52.122;5.250;2023-09-19T00:22:03;7.4;;;2.4;;
62457;SDS011;48509;52.122;5.250;2023-09-19T00:23:39;7.5;;;2.4;;
62457;SDS011;48509;52.122;5.250;2023-09-19T00:25:15;9.0;;;2.5;;
62457;SDS011;48509;52.122;5.250;2023-09-19T00:28:27;11.4;;;2.7;;
62457;SDS011;48509;52.122;5.250;2023-09-19T00:30:04;6.6;;;2.0;;
62457;SDS011;48509;52.122;5.250;2023-09-19T00:31:42;6.9;;;2.1;;
62457;SDS011;48509;52.122;5.250;2023-09-19T00:34:54;12.3;;;2.7;;
62457;SDS011;48509;52.122;5.250;2023-09-19T00:36:31;6.1;;;2.1;;
62457;SDS011;48509;52.122;5.250;2023-09-19T00:38:07;4.91;;;1.8;;
62457;SDS011;48509;52.122;5.250;2023-09-19T00:41:19;6.3;;;1.9;;
62457;SDS011;48509;52.122;5.250;2023-09-19T00:42:57;8.5;;;2.5;;
62457;SDS011;48509;52.122;5.250;2023-09-19T00:44:33;9.0;;;2.4;;
62457;SDS011;48509;52.122;5.250;2023-09-19T00:47:46;7.3;;;2.21;;
62457;SDS011;48509;52.122;5.250;2023-09-19T00:49:24;9.1;;;2.6;;
62457;SDS011;48509;52.122;5.250;2023-09-19T00:51:02;9.1;;;2.31;;
62457;SDS011;48509;52.122;5.250;2023-09-19T00:52:40;8.31;;;2.31;;
62457;SDS011;48509;52.122;5.250;2023-09-19T00:55:54;5.3;;;2.31;;
62457;SDS011;48509;52.122;5.250;2023-09-19T00:57:31;7.9;;;2.4;;
62457;SDS011;48509;52.122;5.250;2023-09-19T00:59:08;10.7;;;2.4;;
62457;SDS011;48509;52.122;5.250;2023-09-19T01:02:21;6.6;;;2.1;;
62457;SDS011;48509;52.122;5.250;2023-09-19T01:03:57;7.2;;;2.0;;
62457;SDS011;48509;52.122;5.250;2023-09-19T01:05:33;7.3;;;2.4;;
62457;SDS011;48509;52.122;5.250;2023-09-19T01:07:09;7.3;;;2.31;;
62457;SDS011;48509;52.122;5.250;2023-09-19T01:10:22;5.7;;;2.0;;
62457;SDS011;48509;52.122;5.250;2023-09-19T01:11:58;6.4;;;2.4;;
62457;SDS011;48509;52.122;5.250;2023-09-19T01:13:48;4.61;;;2.0;;
62457;SDS011;48509;52.122;5.250;2023-09-19T01:15:38;8.5;;;2.31;;
62457;SDS011;48509;52.122;5.250;2023-09-19T01:19:26;10.8;;;2.5;;
62457;SDS011;48509;52.122;5.250;2023-09-19T01:21:33;6.1;;;2.1;;
62457;SDS011;48509;52.122;5.250;2023-09-19T01:23:21;4.0;;;2.0;;
62457;SDS011;48509;52.122;5.250;2023-09-19T01:25:15;8.1;;;2.1;;
62457;SDS011;48509;52.122;5.250;2023-09-19T01:27:17;6.5;;;1.9;;
62457;SDS011;48509;52.122;5.250;2023-09-19T01:29:17;9.0;;;1.9;;
62457;SDS011;48509;52.122;5.250;2023-09-19T01:31:09;5.5;;;2.0;;
62457;SDS011;48509;52.122;5.250;2023-09-19T01:32:47;6.1;;;2.4;;
62457;SDS011;48509;52.122;5.250;2023-09-19T01:34:25;10.8;;;2.21;;
62457;SDS011;48509;52.122;5.250;2023-09-19T01:37:37;6.0;;;1.9;;
62457;SDS011;48509;52.122;5.250;2023-09-19T01:39:13;6.5;;;2.31;;
62457;SDS011;48509;52.122;5.250;2023-09-19T01:40:51;8.9;;;2.5;;
62457;SDS011;48509;52.122;5.250;2023-09-19T01:42:40;9.21;;;2.4;;
62457;SDS011;48509;52.122;5.250;2023-09-19T01:46:16;6.3;;;2.1;;
62457;SDS011;48509;52.122;5.250;2023-09-19T01:48:02;9.81;;;2.31;;
62457;SDS011;48509;52.122;5.250;2023-09-19T01:49:58;18.0;;;2.1;;
62457;SDS011;48509;52.122;5.250;2023-09-19T01:51:50;6.9;;;2.6;;
62457;SDS011;48509;52.122;5.250;2023-09-19T01:53:38;9.1;;;2.21;;
62457;SDS011;48509;52.122;5.250;2023-09-19T01:55:20;5.0;;;2.21;;
62457;SDS011;48509;52.122;5.250;2023-09-19T01:58:42;8.4;;;2.4;;
62457;SDS011;48509;52.122;5.250;2023-09-19T02:00:23;10.0;;;2.31;;
62457;SDS011;48509;52.122;5.250;2023-09-19T02:02:04;7.4;;;2.31;;
62457;SDS011;48509;52.122;5.250;2023-09-19T02:03:42;7.2;;;2.31;;
62457;SDS011;48509;52.122;5.250;2023-09-19T02:07:00;5.9;;;2.0;;
62457;SDS011;48509;52.122;5.250;2023-09-19T02:08:36;9.81;;;2.6;;
62457;SDS011;48509;52.122;5.250;2023-09-19T02:10:13;5.0;;;2.21;;
62457;SDS011;48509;52.122;5.250;2023-09-19T02:13:25;9.21;;;2.6;;
62457;SDS011;48509;52.122;5.250;2023-09-19T02:15:02;6.2;;;2.1;;
62457;SDS011;48509;52.122;5.250;2023-09-19T02:16:38;6.7;;;2.4;;
62457;SDS011;48509;52.122;5.250;2023-09-19T02:18:14;7.9;;;2.8;;
62457;SDS011;48509;52.122;5.250;2023-09-19T02:21:26;8.2;;;2.7;;
62457;SDS011;48509;52.122;5.250;2023-09-19T02:23:02;9.0;;;2.5;;
62457;SDS011;48509;52.122;5.250;2023-09-19T02:24:39;9.5;;;2.7;;
62457;SDS011;48509;52.122;5.250;2023-09-19T02:27:51;12.1;;;3.0;;
62457;SDS011;48509;52.122;5.250;2023-09-19T02:29:27;10.7;;;2.8;;
62457;SDS011;48509;52.122;5.250;2023-09-19T02:31:04;10.7;;;2.7;;
62457;SDS011;48509;52.122;5.250;2023-09-19T02:34:16;11.6;;;2.4;;
62457;SDS011;48509;52.122;5.250;2023-09-19T02:35:54;11.9;;;2.8;;
62457;SDS011;48509;52.122;5.250;2023-09-19T02:37:31;10.9;;;2.8;;
62457;SDS011;48509;52.122;5.250;2023-09-19T02:39:07;7.2;;;2.6;;
62457;SDS011;48509;52.122;5.250;2023-09-19T02:42:19;9.0;;;2.4;;
62457;SDS011;48509;52.122;5.250;2023-09-19T02:43:55;8.31;;;2.5;;
62457;SDS011;48509;52.122;5.250;2023-09-19T02:45:31;10.6;;;2.9;;
62457;SDS011;48509;52.122;5.250;2023-09-19T02:48:44;10.3;;;2.8;;
62457;SDS011;48509;52.122;5.250;2023-09-19T02:50:20;10.21;;;2.9;;
62457;SDS011;48509;52.122;5.250;2023-09-19T02:51:56;9.1;;;2.9;;
62457;SDS011;48509;52.122;5.250;2023-09-19T02:55:08;14.1;;;3.5;;
62457;SDS011;48509;52.122;5.250;2023-09-19T02:56:44;11.6;;;3.1;;
62457;SDS011;48509;52.122;5.250;2023-09-19T02:58:20;7.8;;;2.9;;
62457;SDS011;48509;52.122;5.250;2023-09-19T03:01:32;11.8;;;3.3;;
62457;SDS011;48509;52.122;5.250;2023-09-19T03:03:08;13.4;;;3.0;;
62457;SDS011;48509;52.122;5.250;2023-09-19T03:04:45;10.9;;;3.2;;
62457;SDS011;48509;52.122;5.250;2023-09-19T03:06:21;13.1;;;3.4;;
62457;SDS011;48509;52.122;5.250;2023-09-19T03:09:33;12.8;;;3.3;;
62457;SDS011;48509;52.122;5.250;2023-09-19T03:11:09;13.7;;;3.1;;
62457;SDS011;48509;52.122;5.250;2023-09-19T03:12:45;10.0;;;3.3;;
62457;SDS011;48509;52.122;5.250;2023-09-19T03:15:57;13.6;;;3.3;;
62457;SDS011;48509;52.122;5.250;2023-09-19T03:17:33;13.2;;;3.8;;
62457;SDS011;48509;52.122;5.250;2023-09-19T03:19:09;12.0;;;3.4;;
62457;SDS011;48509;52.122;5.250;2023-09-19T03:22:28;10.1;;;3.1;;
62457;SDS011;48509;52.122;5.250;2023-09-19T03:24:04;19.91;;;3.2;;
62457;SDS011;48509;52.122;5.250;2023-09-19T03:25:40;11.8;;;3.8;;
62457;SDS011;48509;52.122;5.250;2023-09-19T03:27:16;15.7;;;3.6;;
62457;SDS011;48509;52.122;5.250;2023-09-19T03:30:28;18.41;;;3.7;;
62457;SDS011;48509;52.122;5.250;2023-09-19T03:32:04;11.7;;;3.3;;
62457;SDS011;48509;52.122;5.250;2023-09-19T03:33:41;14.5;;;3.6;;
62457;SDS011;48509;52.122;5.250;2023-09-19T03:36:55;11.3;;;3.6;;
62457;SDS011;48509;52.122;5.250;2023-09-19T03:40:08;14.6;;;3.6;;
62457;SDS011;48509;52.122;5.250;2023-09-19T03:43:21;11.5;;;3.5;;
62457;SDS011;48509;52.122;5.250;2023-09-19T03:44:57;18.0;;;3.6;;
62457;SDS011;48509;52.122;5.250;2023-09-19T03:46:33;14.0;;;3.6;;
62457;SDS011;48509;52.122;5.250;2023-09-19T03:48:09;14.0;;;3.6;;
62457;SDS011;48509;52.122;5.250;2023-09-19T03:51:21;13.6;;;3.5;;
62457;SDS011;48509;52.122;5.250;2023-09-19T03:52:58;17.3;;;3.7;;
62457;SDS011;48509;52.122;5.250;2023-09-19T03:54:34;16.3;;;3.9;;
62457;SDS011;48509;52.122;5.250;2023-09-19T03:57:47;12.9;;;3.3;;
62457;SDS011;48509;52.122;5.250;2023-09-19T03:59:24;12.9;;;3.3;;
62457;SDS011;48509;52.122;5.250;2023-09-19T04:01:00;11.4;;;3.0;;
62457;SDS011;48509;52.122;5.250;2023-09-19T04:04:13;19.5;;;3.7;;
62457;SDS011;48509;52.122;5.250;2023-09-19T04:05:49;8.71;;;3.1;;
62457;SDS011;48509;52.122;5.250;2023-09-19T04:07:25;8.81;;;3.3;;
62457;SDS011;48509;52.122;5.250;2023-09-19T04:10:40;10.3;;;3.2;;
62457;SDS011;48509;52.122;5.250;2023-09-19T04:12:18;10.0;;;3.2;;
62457;SDS011;48509;52.122;5.250;2023-09-19T04:13:54;18.11;;;3.6;;
62457;SDS011;48509;52.122;5.250;2023-09-19T04:15:30;10.3;;;3.1;;
62457;SDS011;48509;52.122;5.250;2023-09-19T04:18:42;19.8;;;3.2;;
62457;SDS011;48509;52.122;5.250;2023-09-19T04:20:18;14.8;;;3.5;;
62457;SDS011;48509;52.122;5.250;2023-09-19T04:21:54;12.9;;;3.3;;
62457;SDS011;48509;52.122;5.250;2023-09-19T04:25:07;15.9;;;3.4;;
62457;SDS011;48509;52.122;5.250;2023-09-19T04:26:43;16.8;;;2.8;;
62457;SDS011;48509;52.122;5.250;2023-09-19T04:28:19;21.8;;;3.2;;
62457;SDS011;48509;52.122;5.250;2023-09-19T04:31:31;13.1;;;3.2;;
62457;SDS011;48509;52.122;5.250;2023-09-19T04:33:07;12.8;;;3.0;;
62457;SDS011;48509;52.122;5.250;2023-09-19T04:34:43;9.21;;;3.2;;
62457;SDS011;48509;52.122;5.250;2023-09-19T04:36:19;11.6;;;3.5;;
62457;SDS011;48509;52.122;5.250;2023-09-19T04:39:31;11.0;;;3.2;;
62457;SDS011;48509;52.122;5.250;2023-09-19T04:41:08;14.4;;;3.3;;
62457;SDS011;48509;52.122;5.250;2023-09-19T04:42:44;9.4;;;3.0;;
62457;SDS011;48509;52.122;5.250;2023-09-19T04:45:56;12.8;;;3.3;;
62457;SDS011;48509;52.122;5.250;2023-09-19T04:47:32;8.31;;;2.8;;
62457;SDS011;48509;52.122;5.250;2023-09-19T04:49:08;9.71;;;3.0;;
62457;SDS011;48509;52.122;5.250;2023-09-19T04:52:20;12.2;;;3.5;;
62457;SDS011;48509;52.122;5.250;2023-09-19T04:53:56;11.8;;;3.0;;
62457;SDS011;48509;52.122;5.250;2023-09-19T04:55:33;10.6;;;3.3;;
62457;SDS011;48509;52.122;5.250;2023-09-19T04:58:45;10.8;;;3.0;;
62457;SDS011;48509;52.122;5.250;2023-09-19T05:00:21;12.9;;;3.0;;
62457;SDS011;48509;52.122;5.250;2023-09-19T05:01:58;13.0;;;3.1;;
62457;SDS011;48509;52.122;5.250;2023-09-19T05:03:34;9.21;;;3.1;;
62457;SDS011;48509;52.122;5.250;2023-09-19T05:06:47;10.9;;;3.2;;
62457;SDS011;48509;52.122;5.250;2023-09-19T05:08:23;12.2;;;3.0;;
62457;SDS011;48509;52.122;5.250;2023-09-19T05:10:00;12.0;;;3.1;;
62457;SDS011;48509;52.122;5.250;2023-09-19T05:13:12;9.4;;;3.1;;
62457;SDS011;48509;52.122;5.250;2023-09-19T05:14:48;13.4;;;3.3;;
62457;SDS011;48509;52.122;5.250;2023-09-19T05:16:24;11.6;;;3.7;;
62457;SDS011;48509;52.122;5.250;2023-09-19T05:19:36;12.7;;;3.1;;
62457;SDS011;48509;52.122;5.250;2023-09-19T05:21:12;11.9;;;3.6;;
62457;SDS011;48509;52.122;5.250;2023-09-19T05:22:48;11.3;;;3.1;;
62457;SDS011;48509;52.122;5.250;2023-09-19T05:24:24;10.1;;;3.2;;
62457;SDS011;48509;52.122;5.250;2023-09-19T05:27:36;14.5;;;3.8;;
62457;SDS011;48509;52.122;5.250;2023-09-19T05:29:12;15.6;;;3.5;;
62457;SDS011;48509;52.122;5.250;2023-09-19T05:30:48;11.9;;;2.8;;
62457;SDS011;48509;52.122;5.250;2023-09-19T05:34:00;9.71;;;3.3;;
62457;SDS011;48509;52.122;5.250;2023-09-19T05:35:36;15.1;;;3.7;;
62457;SDS011;48509;52.122;5.250;2023-09-19T05:37:12;11.2;;;3.1;;
62457;SDS011;48509;52.122;5.250;2023-09-19T05:40:25;11.3;;;3.6;;
62457;SDS011;48509;52.122;5.250;2023-09-19T05:42:02;12.3;;;3.1;;
62457;SDS011;48509;52.122;5.250;2023-09-19T05:43:38;13.2;;;3.4;;
62457;SDS011;48509;52.122;5.250;2023-09-19T05:46:50;11.7;;;3.3;;
62457;SDS011;48509;52.122;5.250;2023-09-19T05:48:26;14.2;;;3.7;;
62457;SDS011;48509;52.122;5.250;2023-09-19T05:50:02;14.2;;;3.5;;
62457;SDS011;48509;52.122;5.250;2023-09-19T05:51:38;13.1;;;3.3;;
62457;SDS011;48509;52.122;5.250;2023-09-19T05:54:50;13.5;;;3.9;;
62457;SDS011;48509;52.122;5.250;2023-09-19T05:56:27;11.4;;;3.3;;
62457;SDS011;48509;52.122;5.250;2023-09-19T05:58:03;13.2;;;3.3;;
62457;SDS011;48509;52.122;5.250;2023-09-19T06:01:15;10.21;;;3.4;;
62457;SDS011;48509;52.122;5.250;2023-09-19T06:02:51;14.5;;;3.6;;
62457;SDS011;48509;52.122;5.250;2023-09-19T06:04:27;19.61;;;3.6;;
62457;SDS011;48509;52.122;5.250;2023-09-19T06:07:39;16.11;;;3.2;;
62457;SDS011;48509;52.122;5.250;2023-09-19T06:09:15;12.4;;;3.4;;
62457;SDS011;48509;52.122;5.250;2023-09-19T06:10:51;14.4;;;3.7;;
62457;SDS011;48509;52.122;5.250;2023-09-19T06:14:04;12.0;;;3.2;;
62457;SDS011;48509;52.122;5.250;2023-09-19T06:15:40;13.4;;;3.2;;
62457;SDS011;48509;52.122;5.250;2023-09-19T06:17:16;12.0;;;3.3;;
62457;SDS011;48509;52.122;5.250;2023-09-19T06:18:52;11.2;;;3.4;;
62457;SDS011;48509;52.122;5.250;2023-09-19T06:22:04;13.9;;;3.6;;
62457;SDS011;48509;52.122;5.250;2023-09-19T06:23:40;11.5;;;3.4;;
62457;SDS011;48509;52.122;5.250;2023-09-19T06:25:16;13.9;;;3.5;;
62457;SDS011;48509;52.122;5.250;2023-09-19T06:28:29;10.5;;;3.4;;
62457;SDS011;48509;52.122;5.250;2023-09-19T06:30:06;11.8;;;3.4;;
62457;SDS011;48509;52.122;5.250;2023-09-19T06:31:43;10.9;;;3.4;;
62457;SDS011;48509;52.122;5.250;2023-09-19T06:34:55;13.3;;;3.2;;
62457;SDS011;48509;52.122;5.250;2023-09-19T06:36:31;14.7;;;3.5;;
62457;SDS011;48509;52.122;5.250;2023-09-19T06:38:07;17.61;;;3.5;;
62457;SDS011;48509;52.122;5.250;2023-09-19T06:39:43;22.1;;;3.5;;
62457;SDS011;48509;52.122;5.250;2023-09-19T06:42:55;10.7;;;3.4;;
62457;SDS011;48509;52.122;5.250;2023-09-19T06:44:31;14.9;;;4.0;;
62457;SDS011;48509;52.122;5.250;2023-09-19T06:46:07;11.7;;;3.6;;
62457;SDS011;48509;52.122;5.250;2023-09-19T06:49:20;15.3;;;3.7;;
62457;SDS011;48509;52.122;5.250;2023-09-19T06:50:57;11.8;;;3.5;;
62457;SDS011;48509;52.122;5.250;2023-09-19T06:52:33;12.3;;;3.6;;
62457;SDS011;48509;52.122;5.250;2023-09-19T06:55:45;16.61;;;3.7;;
62457;SDS011;48509;52.122;5.250;2023-09-19T06:57:21;15.8;;;3.9;;
62457;SDS011;48509;52.122;5.250;2023-09-19T06:58:57;14.7;;;3.6;;
62457;SDS011;48509;52.122;5.250;2023-09-19T07:02:09;14.3;;;3.8;;
62457;SDS011;48509;52.122;5.250;2023-09-19T07:03:46;15.4;;;3.8;;
62457;SDS011;48509;52.122;5.250;2023-09-19T07:05:22;17.0;;;3.9;;
62457;SDS011;48509;52.122;5.250;2023-09-19T07:06:58;12.5;;;3.6;;
62457;SDS011;48509;52.122;5.250;2023-09-19T07:10:10;17.8;;;3.9;;
62457;SDS011;48509;52.122;5.250;2023-09-19T07:11:46;16.3;;;3.9;;
62457;SDS011;48509;52.122;5.250;2023-09-19T07:13:22;13.2;;;4.1;;
62457;SDS011;48509;52.122;5.250;2023-09-19T07:16:34;13.4;;;3.7;;
62457;SDS011;48509;52.122;5.250;2023-09-19T07:18:10;19.3;;;4.1;;
62457;SDS011;48509;52.122;5.250;2023-09-19T07:19:47;13.9;;;3.5;;
62457;SDS011;48509;52.122;5.250;2023-09-19T07:22:59;12.7;;;3.6;;
62457;SDS011;48509;52.122;5.250;2023-09-19T07:24:35;14.3;;;3.4;;
62457;SDS011;48509;52.122;5.250;2023-09-19T07:26:11;14.8;;;3.8;;
62457;SDS011;48509;52.122;5.250;2023-09-19T07:29:23;16.7;;;4.5;;
62457;SDS011;48509;52.122;5.250;2023-09-19T07:31:01;13.3;;;3.8;;
62457;SDS011;48509;52.122;5.250;2023-09-19T07:32:38;13.9;;;3.8;;
62457;SDS011;48509;52.122;5.250;2023-09-19T07:34:13;11.7;;;3.8;;
62457;SDS011;48509;52.122;5.250;2023-09-19T07:37:26;11.9;;;3.7;;
62457;SDS011;48509;52.122;5.250;2023-09-19T07:39:02;15.2;;;4.0;;
62457;SDS011;48509;52.122;5.250;2023-09-19T07:40:38;15.7;;;4.3;;
62457;SDS011;48509;52.122;5.250;2023-09-19T07:43:51;12.9;;;3.8;;
62457;SDS011;48509;52.122;5.250;2023-09-19T07:45:27;15.9;;;3.8;;
62457;SDS011;48509;52.122;5.250;2023-09-19T07:47:03;19.61;;;4.2;;
62457;SDS011;48509;52.122;5.250;2023-09-19T07:50:16;10.6;;;3.7;;
62457;SDS011;48509;52.122;5.250;2023-09-19T07:51:53;16.2;;;3.7;;
62457;SDS011;48509;52.122;5.250;2023-09-19T07:53:29;14.7;;;3.9;;
62457;SDS011;48509;52.122;5.250;2023-09-19T07:55:05;13.6;;;3.7;;
62457;SDS011;48509;52.122;5.250;2023-09-19T07:58:18;14.8;;;3.5;;
62457;SDS011;48509;52.122;5.250;2023-09-19T07:59:54;17.2;;;3.8;;
62457;SDS011;48509;52.122;5.250;2023-09-19T08:01:30;17.11;;;3.9;;
62457;SDS011;48509;52.122;5.250;2023-09-19T08:04:42;13.1;;;3.9;;
62457;SDS011;48509;52.122;5.250;2023-09-19T08:06:18;14.0;;;3.9;;
62457;SDS011;48509;52.122;5.250;2023-09-19T08:07:55;12.4;;;3.7;;
62457;SDS011;48509;52.122;5.250;2023-09-19T08:11:07;17.41;;;4.2;;
62457;SDS011;48509;52.122;5.250;2023-09-19T08:12:43;12.2;;;3.5;;
62457;SDS011;48509;52.122;5.250;2023-09-19T08:14:19;13.0;;;4.1;;
62457;SDS011;48509;52.122;5.250;2023-09-19T08:15:55;16.7;;;4.41;;
62457;SDS011;48509;52.122;5.250;2023-09-19T08:19:09;13.7;;;4.3;;
62457;SDS011;48509;52.122;5.250;2023-09-19T08:20:48;12.3;;;4.1;;
62457;SDS011;48509;52.122;5.250;2023-09-19T08:22:25;21.9;;;4.1;;
62457;SDS011;48509;52.122;5.250;2023-09-19T08:25:38;21.8;;;4.41;;
62457;SDS011;48509;52.122;5.250;2023-09-19T08:27:14;12.7;;;3.8;;
62457;SDS011;48509;52.122;5.250;2023-09-19T08:28:50;14.7;;;4.2;;
62457;SDS011;48509;52.122;5.250;2023-09-19T08:32:02;16.3;;;4.41;;
62457;SDS011;48509;52.122;5.250;2023-09-19T08:33:39;19.0;;;4.5;;
62457;SDS011;48509;52.122;5.250;2023-09-19T08:35:15;15.1;;;4.3;;
62457;SDS011;48509;52.122;5.250;2023-09-19T08:36:52;15.4;;;4.3;;
62457;SDS011;48509;52.122;5.250;2023-09-19T08:40:05;24.3;;;3.9;;
62457;SDS011;48509;52.122;5.250;2023-09-19T08:41:42;16.11;;;4.2;;
62457;SDS011;48509;52.122;5.250;2023-09-19T08:43:18;15.5;;;4.3;;
62457;SDS011;48509;52.122;5.250;2023-09-19T08:46:35;15.5;;;4.3;;
62457;SDS011;48509;52.122;5.250;2023-09-19T08:48:20;15.7;;;4.0;;
62457;SDS011;48509;52.122;5.250;2023-09-19T08:50:03;19.5;;;4.5;;
62457;SDS011;48509;52.122;5.250;2023-09-19T08:51:46;20.2;;;4.5;;
62457;SDS011;48509;52.122;5.250;2023-09-19T08:55:17;13.9;;;4.0;;
62457;SDS011;48509;52.122;5.250;2023-09-19T08:56:54;15.8;;;4.0;;
62457;SDS011;48509;52.122;5.250;2023-09-19T08:58:39;14.2;;;3.7;;
62457;SDS011;48509;52.122;5.250;2023-09-19T09:00:27;14.4;;;3.9;;
62457;SDS011;48509;52.122;5.250;2023-09-19T09:02:04;17.8;;;3.8;;
62457;SDS011;48509;52.122;5.250;2023-09-19T09:05:23;17.3;;;4.5;;
62457;SDS011;48509;52.122;5.250;2023-09-19T09:07:00;17.11;;;4.2;;
62457;SDS011;48509;52.122;5.250;2023-09-19T09:08:38;16.5;;;3.7;;
62457;SDS011;48509;52.122;5.250;2023-09-19T09:11:51;16.3;;;4.0;;
62457;SDS011;48509;52.122;5.250;2023-09-19T09:13:29;12.6;;;3.5;;
62457;SDS011;48509;52.122;5.250;2023-09-19T09:15:06;15.4;;;3.7;;
62457;SDS011;48509;52.122;5.250;2023-09-19T09:16:43;10.6;;;3.7;;
62457;SDS011;48509;52.122;5.250;2023-09-19T09:19:55;15.0;;;4.2;;
62457;SDS011;48509;52.122;5.250;2023-09-19T09:21:31;21.0;;;4.1;;
62457;SDS011;48509;52.122;5.250;2023-09-19T09:23:07;14.4;;;3.8;;
62457;SDS011;48509;52.122;5.250;2023-09-19T09:26:40;14.9;;;3.6;;
62457;SDS011;48509;52.122;5.250;2023-09-19T09:28:20;16.5;;;3.8;;
62457;SDS011;48509;52.122;5.250;2023-09-19T09:29:58;13.7;;;3.5;;
62457;SDS011;48509;52.122;5.250;2023-09-19T09:31:34;14.8;;;3.7;;
62457;SDS011;48509;52.122;5.250;2023-09-19T09:34:48;16.11;;;3.6;;
62457;SDS011;48509;52.122;5.250;2023-09-19T09:36:36;14.0;;;3.9;;
62457;SDS011;48509;52.122;5.250;2023-09-19T09:38:14;14.3;;;4.1;;
62457;SDS011;48509;52.122;5.250;2023-09-19T09:39:52;12.1;;;3.8;;
62457;SDS011;48509;52.122;5.250;2023-09-19T09:43:24;13.8;;;3.9;;
62457;SDS011;48509;52.122;5.250;2023-09-19T09:45:19;14.5;;;3.9;;
62457;SDS011;48509;52.122;5.250;2023-09-19T09:46:56;13.1;;;3.7;;
62457;SDS011;48509;52.122;5.250;2023-09-19T09:48:32;16.2;;;4.2;;
62457;SDS011;48509;52.122;5.250;2023-09-19T09:50:08;16.2;;;4.1;;
62457;SDS011;48509;52.122;5.250;2023-09-19T09:53:26;15.6;;;3.9;;
62457;SDS011;48509;52.122;5.250;2023-09-19T09:55:03;11.2;;;3.8;;
62457;SDS011;48509;52.122;5.250;2023-09-19T09:56:55;13.3;;;3.7;;
62457;SDS011;48509;52.122;5.250;2023-09-19T09:58:33;15.8;;;3.8;;
62457;SDS011;48509;52.122;5.250;2023-09-19T10:01:47;14.5;;;4.3;;
62457;SDS011;48509;52.122;5.250;2023-09-19T10:03:30;10.9;;;3.5;;
62457;SDS011;48509;52.122;5.250;2023-09-19T10:05:11;12.9;;;3.6;;
62457;SDS011;48509;52.122;5.250;2023-09-19T10:06:49;11.3;;;3.5;;
62457;SDS011;48509;52.122;5.250;2023-09-19T10:10:03;13.4;;;3.9;;
62457;SDS011;48509;52.122;5.250;2023-09-19T10:11:41;18.2;;;3.9;;
62457;SDS011;48509;52.122;5.250;2023-09-19T10:13:19;14.7;;;3.5;;
62457;SDS011;48509;52.122;5.250;2023-09-19T10:16:36;16.7;;;4.2;;
62457;SDS011;48509;52.122;5.250;2023-09-19T10:18:16;15.1;;;3.5;;
62457;SDS011;48509;52.122;5.250;2023-09-19T10:19:56;13.0;;;3.8;;
62457;SDS011;48509;52.122;5.250;2023-09-19T10:21:32;13.4;;;3.3;;
62457;SDS011;48509;52.122;5.250;2023-09-19T10:24:47;13.0;;;3.5;;
62457;SDS011;48509;52.122;5.250;2023-09-19T10:26:26;24.9;;;4.0;;
62457;SDS011;48509;52.122;5.250;2023-09-19T10:28:03;14.9;;;3.6;;
62457;SDS011;48509;52.122;5.250;2023-09-19T10:31:21;11.2;;;3.4;;
62457;SDS011;48509;52.122;5.250;2023-09-19T10:33:00;12.4;;;3.3;;
62457;SDS011;48509;52.122;5.250;2023-09-19T10:34:38;15.1;;;3.5;;
62457;SDS011;48509;52.122;5.250;2023-09-19T10:36:17;13.9;;;3.3;;
62457;SDS011;48509;52.122;5.250;2023-09-19T10:39:32;14.5;;;3.6;;
62457;SDS011;48509;52.122;5.250;2023-09-19T10:41:08;9.81;;;2.7;;
62457;SDS011;48509;52.122;5.250;2023-09-19T10:42:48;10.6;;;2.8;;
62457;SDS011;48509;52.122;5.250;2023-09-19T10:46:08;13.0;;;3.2;;
62457;SDS011;48509;52.122;5.250;2023-09-19T10:47:44;12.3;;;2.9;;
62457;SDS011;48509;52.122;5.250;2023-09-19T10:49:20;8.0;;;3.0;;
62457;SDS011;48509;52.122;5.250;2023-09-19T10:50:58;14.4;;;3.0;;
62457;SDS011;48509;52.122;5.250;2023-09-19T10:54:18;14.1;;;3.1;;
62457;SDS011;48509;52.122;5.250;2023-09-19T10:55:59;10.9;;;2.8;;
62457;SDS011;48509;52.122;5.250;2023-09-19T10:57:37;11.4;;;3.0;;
62457;SDS011;48509;52.122;5.250;2023-09-19T10:59:14;9.71;;;2.9;;
62457;SDS011;48509;52.122;5.250;2023-09-19T11:02:30;10.5;;;2.5;;
62457;SDS011;48509;52.122;5.250;2023-09-19T11:04:20;11.9;;;2.7;;
62457;SDS011;48509;52.122;5.250;2023-09-19T11:06:00;11.0;;;2.9;;
62457;SDS011;48509;52.122;5.250;2023-09-19T11:07:56;11.1;;;2.8;;
62457;SDS011;48509;52.122;5.250;2023-09-19T11:11:42;11.0;;;2.6;;
62457;SDS011;48509;52.122;5.250;2023-09-19T11:13:24;9.4;;;3.0;;
62457;SDS011;48509;52.122;5.250;2023-09-19T11:15:00;11.9;;;2.8;;
62457;SDS011;48509;52.122;5.250;2023-09-19T11:16:37;7.6;;;2.5;;
62457;SDS011;48509;52.122;5.250;2023-09-19T11:18:50;8.5;;;2.6;;
62457;SDS011;48509;52.122;5.250;2023-09-19T11:20:28;15.8;;;2.8;;
62457;SDS011;48509;52.122;5.250;2023-09-19T11:23:40;8.71;;;2.4;;
62457;SDS011;48509;52.122;5.250;2023-09-19T11:25:48;11.6;;;2.5;;
62457;SDS011;48509;52.122;5.250;2023-09-19T11:27:25;6.8;;;2.0;;
62457;SDS011;48509;52.122;5.250;2023-09-19T11:29:24;10.4;;;2.4;;
62457;SDS011;48509;52.122;5.250;2023-09-19T11:33:19;9.5;;;2.4;;
62457;SDS011;48509;52.122;5.250;2023-09-19T11:35:06;8.81;;;2.31;;
62457;SDS011;48509;52.122;5.250;2023-09-19T11:38:19;16.5;;;2.4;;
62457;SDS011;48509;52.122;5.250;2023-09-19T11:40:34;12.7;;;2.6;;
62457;SDS011;48509;52.122;5.250;2023-09-19T11:42:40;4.61;;;1.9;;
62457;SDS011;48509;52.122;5.250;2023-09-19T11:44:34;7.1;;;2.1;;
62457;SDS011;48509;52.122;5.250;2023-09-19T11:46:10;9.9;;;2.4;;
62457;SDS011;48509;52.122;5.250;2023-09-19T11:47:46;9.21;;;2.5;;
62457;SDS011;48509;52.122;5.250;2023-09-19T11:49:25;12.9;;;2.31;;
62457;SDS011;48509;52.122;5.250;2023-09-19T11:52:57;9.0;;;2.4;;
62457;SDS011;48509;52.122;5.250;2023-09-19T11:54:34;6.7;;;1.9;;
62457;SDS011;48509;52.122;5.250;2023-09-19T11:56:11;9.5;;;2.21;;
62457;SDS011;48509;52.122;5.250;2023-09-19T11:57:47;9.6;;;2.21;;
62457;SDS011;48509;52.122;5.250;2023-09-19T12:01:02;11.1;;;2.1;;
62457;SDS011;48509;52.122;5.250;2023-09-19T12:02:41;8.1;;;1.9;;
62457;SDS011;48509;52.122;5.250;2023-09-19T12:04:32;5.6;;;1.9;;
62457;SDS011;48509;52.122;5.250;2023-09-19T12:06:11;7.9;;;1.9;;
62457;SDS011;48509;52.122;5.250;2023-09-19T12:09:24;7.4;;;1.9;;
62457;SDS011;48509;52.122;5.250;2023-09-19T12:11:01;12.1;;;1.9;;
62457;SDS011;48509;52.122;5.250;2023-09-19T12:12:37;6.8;;;1.8;;
62457;SDS011;48509;52.122;5.250;2023-09-19T12:15:58;9.5;;;2.0;;
62457;SDS011;48509;52.122;5.250;2023-09-19T12:17:35;8.81;;;1.5;;
62457;SDS011;48509;52.122;5.250;2023-09-19T12:19:19;7.3;;;1.8;;
62457;SDS011;48509;52.122;5.250;2023-09-19T12:20:57;7.5;;;1.6;;
62457;SDS011;48509;52.122;5.250;2023-09-19T12:24:14;11.6;;;1.9;;
62457;SDS011;48509;52.122;5.250;2023-09-19T12:25:51;5.3;;;1.7;;
62457;SDS011;48509;52.122;5.250;2023-09-19T12:27:27;6.6;;;1.7;;
62457;SDS011;48509;52.122;5.250;2023-09-19T12:29:03;4.41;;;1.3;;
62457;SDS011;48509;52.122;5.250;2023-09-19T12:32:15;5.2;;;1.8;;
62457;SDS011;48509;52.122;5.250;2023-09-19T12:33:53;6.1;;;1.9;;
62457;SDS011;48509;52.122;5.250;2023-09-19T12:35:30;4.5;;;1.6;;
62457;SDS011;48509;52.122;5.250;2023-09-19T12:38:47;10.4;;;1.8;;
62457;SDS011;48509;52.122;5.250;2023-09-19T12:40:24;5.9;;;1.6;;
62457;SDS011;48509;52.122;5.250;2023-09-19T12:42:00;7.4;;;1.7;;
62457;SDS011;48509;52.122;5.250;2023-09-19T12:45:12;6.7;;;1.8;;
62457;SDS011;48509;52.122;5.250;2023-09-19T12:46:49;5.3;;;1.6;;
62457;SDS011;48509;52.122;5.250;2023-09-19T12:48:25;6.6;;;1.6;;
62457;SDS011;48509;52.122;5.250;2023-09-19T12:50:06;6.4;;;1.8;;
62457;SDS011;48509;52.122;5.250;2023-09-19T12:53:24;7.5;;;1.8;;